Terminal Aerodrome Forecast
Issued by NWS Green Bay, WI

Home | Current Version | Previous Version | Text Only | Print | Product List | Glossary Off
Versions: 1 2 3 4 5 6 7 8 9 10 11 12 13 14 15 16 17 18 19 20 21 22 23 24 25 26 27 28 29 30 31 32 33 34 35 36 37 38 39 40 41 42

000
FTUS43 KGRB 291720
TAFGRB
TAF
KGRB 291720Z 2918/3018 21006KT P6SM VCSH BKN025 BKN050
      TEMPO 3003/3006 -SHRA BKN050
     FM300600 VRB03KT P6SM VCSH SCT012 BKN035
     FM301000 VRB03KT 5SM BR VCSH SCT010 BKN035
      TEMPO 3010/3013 3SM BR BKN010
     FM301400 01005KT P6SM SCT012 BKN035=

USA.gov is the U.S. government's official web portal to all federal, state and local government web resources and services.